createdAt,value
2018-07-16T00:01:32.363Z,2.93
2018-07-16T00:04:03.062Z,3.07
2018-07-16T00:06:33.849Z,2.90
2018-07-16T00:09:04.742Z,2.50
2018-07-16T00:11:36.346Z,2.30
2018-07-16T00:14:07.312Z,2.33
2018-07-16T00:16:38.229Z,2.03
2018-07-16T00:19:08.975Z,2.70
2018-07-16T00:21:39.909Z,2.00
2018-07-16T00:24:10.842Z,1.73
2018-07-16T00:26:41.535Z,3.10
2018-07-16T00:29:12.447Z,3.10
2018-07-16T00:31:43.191Z,2.70
2018-07-16T00:34:13.816Z,2.20
2018-07-16T00:36:44.447Z,1.90
2018-07-16T00:39:15.535Z,2.10
2018-07-16T00:41:46.564Z,1.80
2018-07-16T00:44:17.332Z,1.93
2018-07-16T00:46:48.128Z,1.97
2018-07-16T00:49:18.856Z,1.60
2018-07-16T00:51:49.565Z,1.77
2018-07-16T00:54:20.378Z,1.70
2018-07-16T00:56:51.106Z,1.80
2018-07-16T00:59:21.739Z,1.60
2018-07-16T01:01:52.456Z,1.90
2018-07-16T01:04:23.119Z,1.87
2018-07-16T01:06:53.783Z,1.50
2018-07-16T01:09:24.449Z,1.47
2018-07-16T01:11:55.114Z,1.40
2018-07-16T01:14:25.826Z,1.70
2018-07-16T01:16:56.513Z,1.53
2018-07-16T01:19:27.179Z,1.87
2018-07-16T01:21:57.872Z,1.40
2018-07-16T01:24:28.564Z,1.53
2018-07-16T01:26:59.410Z,1.50
2018-07-16T01:29:30.378Z,1.70
2018-07-16T01:32:01.126Z,1.60
2018-07-16T01:34:32.057Z,1.43
2018-07-16T01:37:02.848Z,1.50
2018-07-16T01:39:33.598Z,1.37
2018-07-16T01:42:04.478Z,1.80
2018-07-16T01:44:35.473Z,1.70
2018-07-16T01:47:06.470Z,1.57
2018-07-16T01:49:37.486Z,1.40
2018-07-16T01:52:08.220Z,1.20
2018-07-16T01:54:39.409Z,1.40
2018-07-16T01:57:10.400Z,1.70
2018-07-16T01:59:41.364Z,1.40
2018-07-16T02:02:12.736Z,1.57
2018-07-16T02:04:43.458Z,1.80
2018-07-16T02:07:14.978Z,1.60
2018-07-16T02:09:46.009Z,1.60
2018-07-16T02:12:17.121Z,1.87
2018-07-16T02:14:48.020Z,2.10
2018-07-16T02:17:18.900Z,1.87
2018-07-16T02:19:49.888Z,2.00
2018-07-16T02:22:20.829Z,1.80
2018-07-16T02:24:51.898Z,1.80
2018-07-16T02:27:22.801Z,2.03
2018-07-16T02:29:53.840Z,2.13
2018-07-16T02:32:24.501Z,1.83
2018-07-16T02:34:55.493Z,2.03
2018-07-16T02:37:26.234Z,2.10
2018-07-16T02:39:56.954Z,1.80
2018-07-16T02:42:27.631Z,2.07
2018-07-16T02:44:58.352Z,1.80
2018-07-16T02:47:29.037Z,2.20
2018-07-16T02:49:59.768Z,2.00
2018-07-16T02:52:30.511Z,2.13
2018-07-16T02:55:01.209Z,2.13
2018-07-16T02:57:32.015Z,1.90
2018-07-16T03:00:02.732Z,2.00
2018-07-16T03:02:36.567Z,2.30
2018-07-16T03:05:07.831Z,2.13
2018-07-16T03:07:38.585Z,2.07
2018-07-16T03:10:09.240Z,2.43
2018-07-16T03:12:39.938Z,2.10
2018-07-16T03:15:11.664Z,2.20
2018-07-16T03:17:42.400Z,2.47
2018-07-16T03:20:13.686Z,2.20
2018-07-16T03:22:44.375Z,2.00
2018-07-16T03:25:15.041Z,1.63
2018-07-16T03:27:45.739Z,2.17
2018-07-16T03:30:17.012Z,2.17
2018-07-16T03:32:47.716Z,2.30
2018-07-16T03:35:18.414Z,2.17
2018-07-16T03:37:49.110Z,2.33
2018-07-16T03:40:19.818Z,2.40
2018-07-16T03:42:50.591Z,2.60
2018-07-16T03:45:21.256Z,2.33
2018-07-16T03:47:52.049Z,2.37
2018-07-16T03:50:22.756Z,2.80
2018-07-16T03:52:53.453Z,2.67
2018-07-16T03:55:24.223Z,2.50
2018-07-16T03:57:55.167Z,2.63
2018-07-16T04:00:26.361Z,2.67
2018-07-16T04:02:57.106Z,2.73
2018-07-16T04:05:27.821Z,2.60
2018-07-16T04:07:58.502Z,2.80
2018-07-16T04:10:29.150Z,3.00
2018-07-16T04:12:59.886Z,3.00
2018-07-16T04:15:30.672Z,2.80
2018-07-16T04:18:01.360Z,2.70
2018-07-16T04:20:32.079Z,2.73
2018-07-16T04:23:02.765Z,3.10
2018-07-16T04:25:33.443Z,3.40
2018-07-16T04:28:04.190Z,3.27
2018-07-16T04:30:34.872Z,4.20
2018-07-16T04:33:05.635Z,4.23
2018-07-16T04:35:36.331Z,3.60
2018-07-16T04:38:07.076Z,3.77
2018-07-16T04:40:37.681Z,3.37
2018-07-16T04:43:08.375Z,3.07
2018-07-16T04:45:39.053Z,3.90
2018-07-16T04:48:09.808Z,4.10
2018-07-16T04:50:40.557Z,4.83
2018-07-16T04:53:11.353Z,4.80
2018-07-16T04:55:42.033Z,5.20
2018-07-16T04:58:12.748Z,5.40
2018-07-16T05:00:43.464Z,5.90
2018-07-16T05:03:14.188Z,5.83
2018-07-16T05:05:44.892Z,6.00
2018-07-16T05:08:15.575Z,5.70
2018-07-16T05:10:46.345Z,5.43
2018-07-16T05:13:16.963Z,6.10
2018-07-16T05:15:47.714Z,6.50
2018-07-16T05:18:21.311Z,6.30
2018-07-16T05:20:52.009Z,6.57
2018-07-16T05:23:22.695Z,6.33
2018-07-16T05:25:53.072Z,6.43
2018-07-16T05:28:23.634Z,6.40
2018-07-16T05:30:54.319Z,6.60
2018-07-16T05:33:24.980Z,6.23
2018-07-16T05:35:55.685Z,6.47
2018-07-16T05:38:26.415Z,7.07
2018-07-16T05:40:57.096Z,6.73
2018-07-16T05:43:27.816Z,6.43
2018-07-16T05:45:58.490Z,6.40
2018-07-16T05:48:29.222Z,6.50
2018-07-16T05:50:59.855Z,6.37
2018-07-16T05:53:30.672Z,5.93
2018-07-16T05:56:01.358Z,6.03
2018-07-16T05:58:32.063Z,6.00
2018-07-16T06:01:02.759Z,5.93
2018-07-16T06:03:33.471Z,5.77
2018-07-16T06:06:04.245Z,5.47
2018-07-16T06:08:34.963Z,5.20
2018-07-16T06:11:05.764Z,4.77
2018-07-16T06:13:36.480Z,6.03
2018-07-16T06:16:38.215Z,4.70
2018-07-16T06:19:39.747Z,4.27
2018-07-16T06:22:10.479Z,4.20
2018-07-16T06:24:41.151Z,3.80
2018-07-16T06:27:11.840Z,3.53
2018-07-16T06:29:42.579Z,3.63
2018-07-16T06:32:13.272Z,3.47
2018-07-16T06:38:17.407Z,2.93
2018-07-16T06:40:48.302Z,3.37
2018-07-16T06:43:18.834Z,3.07
2018-07-16T06:45:49.747Z,3.23
2018-07-16T06:48:20.499Z,2.90
2018-07-16T06:50:51.792Z,2.77
2018-07-16T06:53:22.678Z,3.30
2018-07-16T06:55:53.498Z,2.90
2018-07-16T06:58:24.197Z,2.80
2018-07-16T07:00:55.255Z,2.83
2018-07-16T07:03:26.007Z,2.83
2018-07-16T07:05:56.696Z,3.20
2018-07-16T07:08:27.422Z,3.03
2018-07-16T07:10:58.127Z,2.40
2018-07-16T07:13:28.857Z,2.70
2018-07-16T07:15:59.598Z,2.60
2018-07-16T07:18:30.294Z,2.57
2018-07-16T07:21:00.983Z,2.60
2018-07-16T07:23:31.679Z,2.67
2018-07-16T07:26:02.403Z,2.30
2018-07-16T07:28:33.073Z,2.50
2018-07-16T07:31:03.799Z,2.63
2018-07-16T07:33:34.513Z,2.83
2018-07-16T07:36:05.319Z,2.40
2018-07-16T07:38:35.981Z,2.30
2018-07-16T07:41:07.166Z,2.40
2018-07-16T07:43:37.824Z,2.53
2018-07-16T07:46:08.526Z,2.57
2018-07-16T07:48:39.182Z,2.43
2018-07-16T07:51:09.829Z,2.53
2018-07-16T07:53:40.509Z,2.00
2018-07-16T07:56:11.268Z,2.53
2018-07-16T07:58:41.917Z,2.30
2018-07-16T08:01:12.608Z,1.93
2018-07-16T08:03:43.260Z,2.30
2018-07-16T08:06:14.013Z,1.70
2018-07-16T08:08:44.722Z,1.87
2018-07-16T08:11:15.427Z,1.73
2018-07-16T08:13:46.164Z,1.40
2018-07-16T08:16:16.895Z,1.70
2018-07-16T08:18:47.702Z,1.60
2018-07-16T08:21:18.458Z,1.77
2018-07-16T08:23:49.112Z,1.73
2018-07-16T08:26:19.815Z,1.50
2018-07-16T08:28:50.557Z,1.53
2018-07-16T08:31:21.300Z,1.40
2018-07-16T08:33:52.052Z,1.80
2018-07-16T08:36:22.739Z,1.70
2018-07-16T08:38:53.534Z,1.40
2018-07-16T08:41:24.346Z,1.33
2018-07-16T08:43:54.733Z,1.30
2018-07-16T08:46:25.397Z,1.40
2018-07-16T08:48:56.136Z,1.50
2018-07-16T08:51:26.841Z,1.50
2018-07-16T08:53:57.622Z,1.30
2018-07-16T08:56:28.331Z,1.60
2018-07-16T08:58:59.043Z,1.50
2018-07-16T09:01:29.827Z,1.33
2018-07-16T09:04:00.512Z,1.23
2018-07-16T09:06:31.264Z,1.20
2018-07-16T09:09:01.977Z,1.23
2018-07-16T09:11:32.702Z,1.30
2018-07-16T09:14:03.685Z,1.33
2018-07-16T09:16:34.336Z,1.20
2018-07-16T09:19:05.092Z,1.57
2018-07-16T09:21:35.766Z,1.40
2018-07-16T09:24:06.521Z,1.20
2018-07-16T09:26:37.291Z,1.40
2018-07-16T09:29:08.161Z,1.80
2018-07-16T09:31:38.892Z,1.30
2018-07-16T09:34:09.904Z,1.33
2018-07-16T09:36:40.588Z,1.20
2018-07-16T09:39:11.400Z,1.30
2018-07-16T09:41:42.111Z,1.70
2018-07-16T09:44:12.881Z,1.20
2018-07-16T09:46:43.588Z,1.80
2018-07-16T09:49:14.011Z,1.53
2018-07-16T09:51:44.575Z,1.50
2018-07-16T09:54:15.286Z,1.73
2018-07-16T09:56:46.036Z,1.30
2018-07-16T09:59:16.769Z,1.33
2018-07-16T10:01:51.554Z,1.50
2018-07-16T10:04:22.288Z,1.33
2018-07-16T10:06:53.043Z,1.20
2018-07-16T10:09:23.726Z,1.40
2018-07-16T10:11:54.410Z,1.17
2018-07-16T10:14:25.152Z,1.30
2018-07-16T10:16:55.878Z,1.20
2018-07-16T10:19:26.535Z,1.00
2018-07-16T10:21:57.269Z,0.90
2018-07-16T10:24:28.093Z,0.90
2018-07-16T10:26:58.952Z,1.00
2018-07-16T10:29:29.628Z,0.90
2018-07-16T10:32:00.340Z,1.30
2018-07-16T10:34:30.709Z,1.10
2018-07-16T10:37:01.346Z,1.20
2018-07-16T10:39:32.046Z,1.20
2018-07-16T10:42:02.766Z,1.10
2018-07-16T10:44:33.450Z,1.40
2018-07-16T10:47:04.209Z,1.13
2018-07-16T10:49:34.931Z,1.10
2018-07-16T10:52:05.630Z,1.20
2018-07-16T10:54:36.401Z,1.10
2018-07-16T10:57:07.222Z,1.10
2018-07-16T10:59:38.741Z,1.10
2018-07-16T11:02:09.464Z,1.10
2018-07-16T11:04:40.281Z,1.20
2018-07-16T11:07:11.020Z,1.00
2018-07-16T11:09:41.716Z,1.00
2018-07-16T11:12:12.402Z,1.00
2018-07-16T11:14:42.733Z,1.40
2018-07-16T11:17:13.402Z,1.00
2018-07-16T11:19:43.696Z,1.20
2018-07-16T11:22:14.412Z,1.10
2018-07-16T11:24:45.131Z,1.37
2018-07-16T11:27:15.846Z,1.00
2018-07-16T11:29:46.556Z,1.00
2018-07-16T11:32:17.277Z,1.00
2018-07-16T11:34:48.012Z,1.50
2018-07-16T11:37:18.728Z,1.20
2018-07-16T11:39:49.457Z,1.13
2018-07-16T11:42:20.105Z,0.90
2018-07-16T11:44:50.838Z,1.33
2018-07-16T11:47:21.525Z,1.17
2018-07-16T11:49:52.251Z,1.00
2018-07-16T11:52:29.601Z,1.03
2018-07-16T11:55:00.329Z,1.00
2018-07-16T11:57:31.109Z,1.03
2018-07-16T12:00:02.628Z,1.10
2018-07-16T12:02:33.371Z,1.10
2018-07-16T12:05:04.127Z,1.10
2018-07-16T12:07:34.838Z,1.10
2018-07-16T12:10:05.607Z,1.00
2018-07-16T12:12:36.367Z,1.00
2018-07-16T12:15:07.052Z,0.90
2018-07-16T12:17:37.740Z,0.90
2018-07-16T12:20:08.514Z,1.17
2018-07-16T12:22:39.246Z,1.20
2018-07-16T12:25:09.864Z,1.00
2018-07-16T12:27:43.462Z,0.87
2018-07-16T12:30:14.407Z,1.10
2018-07-16T12:32:45.206Z,1.00
2018-07-16T12:35:15.848Z,1.10
2018-07-16T12:37:46.541Z,1.00
2018-07-16T12:40:17.242Z,0.90
2018-07-16T12:42:48.037Z,0.83
2018-07-16T12:45:18.682Z,1.27
2018-07-16T12:47:49.450Z,1.00
2018-07-16T12:50:20.070Z,1.20
2018-07-16T12:52:50.771Z,1.10
2018-07-16T12:55:21.491Z,1.00
2018-07-16T12:57:52.155Z,0.90
2018-07-16T13:00:22.843Z,1.10
2018-07-16T13:02:53.521Z,0.80
2018-07-16T13:05:24.215Z,0.80
2018-07-16T13:07:54.943Z,0.95
2018-07-16T13:10:25.597Z,0.95
2018-07-16T13:12:56.428Z,0.90
2018-07-16T13:15:27.062Z,0.90
2018-07-16T13:17:57.733Z,0.90
2018-07-16T13:20:28.479Z,0.80
2018-07-16T13:22:59.140Z,0.72
2018-07-16T13:25:29.932Z,0.85
2018-07-16T13:28:00.635Z,1.30
2018-07-16T13:30:31.281Z,1.30
2018-07-16T13:33:01.981Z,1.40
2018-07-16T13:35:32.795Z,0.95
2018-07-16T13:38:03.487Z,0.78
2018-07-16T13:40:34.180Z,0.90
2018-07-16T13:43:05.015Z,0.70
2018-07-16T13:45:35.685Z,0.93
2018-07-16T13:48:06.093Z,0.77
2018-07-16T13:50:36.658Z,1.17
2018-07-16T13:53:07.934Z,1.10
2018-07-16T13:55:38.604Z,0.90
2018-07-16T13:58:09.299Z,1.00
2018-07-16T14:00:39.980Z,1.10
2018-07-16T14:03:10.348Z,1.10
2018-07-16T14:05:40.934Z,1.20
2018-07-16T14:08:11.618Z,1.00
2018-07-16T14:10:42.323Z,1.10
2018-07-16T14:13:13.024Z,1.00
2018-07-16T14:18:44.779Z,1.00
2018-07-16T14:21:15.508Z,1.27
2018-07-16T14:23:46.341Z,1.13
2018-07-16T14:26:17.108Z,0.97
2018-07-16T14:28:47.769Z,1.20
2018-07-16T14:31:18.488Z,0.80
2018-07-16T14:33:49.136Z,1.00
2018-07-16T14:36:20.060Z,1.10
2018-07-16T14:38:50.806Z,0.90
2018-07-16T14:41:21.539Z,1.10
2018-07-16T14:43:52.271Z,0.90
2018-07-16T14:46:23.042Z,1.10
2018-07-16T14:48:53.712Z,1.17
2018-07-16T14:51:24.412Z,1.20
2018-07-16T14:53:55.117Z,0.90
2018-07-16T14:56:25.839Z,1.20
2018-07-16T14:58:56.554Z,1.47
2018-07-16T15:01:27.331Z,1.03
2018-07-16T15:03:57.977Z,0.90
2018-07-16T15:06:28.776Z,1.03
2018-07-16T15:08:59.502Z,1.07
2018-07-16T15:11:30.201Z,0.90
2018-07-16T15:14:01.165Z,1.10
2018-07-16T15:16:31.947Z,0.93
2018-07-16T15:19:03.487Z,0.90
2018-07-16T15:21:34.235Z,1.00
2018-07-16T15:24:04.946Z,1.13
2018-07-16T15:26:36.226Z,0.83
2018-07-16T15:29:07.118Z,0.80
2018-07-16T15:31:37.799Z,1.20
2018-07-16T15:34:08.715Z,0.87
2018-07-16T15:36:39.413Z,0.90
2018-07-16T15:39:10.365Z,1.10
2018-07-16T15:41:41.120Z,0.90
2018-07-16T15:44:11.990Z,0.90
2018-07-16T15:46:42.664Z,1.00
2018-07-16T15:49:13.342Z,0.90
2018-07-16T15:51:44.069Z,0.83
2018-07-16T15:54:14.842Z,1.00
2018-07-16T15:56:45.502Z,1.00
2018-07-16T15:59:16.145Z,0.87
2018-07-16T16:01:46.937Z,1.00
2018-07-16T16:04:17.646Z,0.80
2018-07-16T16:06:48.415Z,0.90
2018-07-16T16:09:19.135Z,0.90
2018-07-16T16:11:49.866Z,0.90
2018-07-16T16:14:20.523Z,1.03
2018-07-16T16:16:51.190Z,1.10
2018-07-16T16:19:21.835Z,1.00
2018-07-16T16:21:52.587Z,0.97
2018-07-16T16:24:23.265Z,0.93
2018-07-16T16:26:54.043Z,0.87
2018-07-16T16:29:24.841Z,1.20
2018-07-16T16:31:55.653Z,1.17
2018-07-16T16:34:26.352Z,1.10
2018-07-16T16:36:57.070Z,1.17
2018-07-16T16:39:27.751Z,1.33
2018-07-16T16:41:58.498Z,1.40
2018-07-16T16:44:29.191Z,1.37
2018-07-16T16:46:59.977Z,1.10
2018-07-16T16:49:30.647Z,1.23
2018-07-16T16:52:01.384Z,1.60
2018-07-16T16:54:32.143Z,1.13
2018-07-16T16:57:03.041Z,1.30
2018-07-16T16:59:33.691Z,1.27
2018-07-16T17:02:04.370Z,1.20
2018-07-16T17:04:35.053Z,1.47
2018-07-16T17:07:05.757Z,1.40
2018-07-16T17:09:36.447Z,1.57
2018-07-16T17:12:07.178Z,1.40
2018-07-16T17:14:37.913Z,1.50
2018-07-16T17:17:08.688Z,1.30
2018-07-16T17:19:39.387Z,1.37
2018-07-16T17:22:10.071Z,1.50
2018-07-16T17:24:40.808Z,1.50
2018-07-16T17:27:11.499Z,1.50
2018-07-16T17:29:42.191Z,1.20
2018-07-16T17:32:15.852Z,1.37
2018-07-16T17:34:47.222Z,1.10
2018-07-16T17:37:17.883Z,1.13
2018-07-16T17:39:48.223Z,1.10
2018-07-16T17:42:18.780Z,1.17
2018-07-16T17:44:49.509Z,1.30
2018-07-16T17:47:20.214Z,1.23
2018-07-16T17:49:50.856Z,1.13
2018-07-16T17:52:21.592Z,1.20
2018-07-16T17:54:52.251Z,1.30
2018-07-16T17:57:22.917Z,1.30
2018-07-16T17:59:53.559Z,1.13
2018-07-16T18:02:24.268Z,1.10
2018-07-16T18:04:54.996Z,1.00
2018-07-16T18:07:25.694Z,1.20
2018-07-16T18:09:56.420Z,1.30
2018-07-16T18:12:27.104Z,1.00
2018-07-16T18:14:57.776Z,1.20
2018-07-16T18:17:28.447Z,1.20
2018-07-16T18:19:59.156Z,1.17
2018-07-16T18:22:29.889Z,0.90
2018-07-16T18:25:00.582Z,1.00
2018-07-16T18:27:31.371Z,1.20
2018-07-16T18:30:02.350Z,1.30
2018-07-16T18:32:33.401Z,1.37
2018-07-16T18:35:04.519Z,1.17
2018-07-16T18:37:35.519Z,1.03
2018-07-16T18:40:06.691Z,1.30
2018-07-16T18:42:37.468Z,1.77
2018-07-16T18:45:08.138Z,1.37
2018-07-16T18:47:38.833Z,1.50
2018-07-16T18:50:10.114Z,1.30
2018-07-16T18:52:42.664Z,1.20
2018-07-16T18:55:13.640Z,1.10
2018-07-16T18:57:44.407Z,1.40
2018-07-16T19:00:15.300Z,1.30
2018-07-16T19:02:46.120Z,1.37
2018-07-16T19:05:16.904Z,1.30
2018-07-16T19:07:48.620Z,1.47
2018-07-16T19:10:19.604Z,1.30
2018-07-16T19:12:51.155Z,1.30
2018-07-16T19:15:28.456Z,1.50
2018-07-16T19:17:59.525Z,1.60
2018-07-16T19:20:30.767Z,1.50
2018-07-16T19:23:01.607Z,1.60
2018-07-16T19:25:32.784Z,1.40
2018-07-16T19:28:03.854Z,1.60
2018-07-16T19:30:34.620Z,1.40
2018-07-16T19:33:05.507Z,1.53
2018-07-16T19:35:36.250Z,1.50
2018-07-16T19:38:07.008Z,1.60
2018-07-16T19:40:37.741Z,1.90
2018-07-16T19:43:08.580Z,1.90
2018-07-16T19:45:39.393Z,1.80
2018-07-16T19:48:10.341Z,2.00
2018-07-16T19:50:41.411Z,1.83
2018-07-16T19:53:12.695Z,1.80
2018-07-16T19:55:43.596Z,1.70
2018-07-16T19:58:15.136Z,1.83
2018-07-16T20:00:45.998Z,1.53
2018-07-16T20:03:16.731Z,1.97
2018-07-16T20:05:47.468Z,2.00
2018-07-16T20:08:18.296Z,2.00
2018-07-16T20:10:49.165Z,2.20
2018-07-16T20:13:20.505Z,2.03
2018-07-16T20:15:52.000Z,1.90
2018-07-16T20:18:22.686Z,2.00
2018-07-16T20:20:55.830Z,1.80
2018-07-16T20:23:26.490Z,1.80
2018-07-16T20:25:58.289Z,2.17
2018-07-16T20:28:28.952Z,1.93
2018-07-16T20:30:59.639Z,2.03
2018-07-16T20:33:30.300Z,2.20
2018-07-16T20:36:00.992Z,2.37
2018-07-16T20:38:31.756Z,2.03
2018-07-16T20:41:02.492Z,2.30
2018-07-16T20:43:33.227Z,2.30
2018-07-16T20:46:03.873Z,2.50
2018-07-16T20:48:34.550Z,2.33
2018-07-16T20:51:05.245Z,2.23
2018-07-16T20:53:35.909Z,2.20
2018-07-16T20:56:07.042Z,2.30
2018-07-16T20:58:37.835Z,2.00
2018-07-16T21:01:08.527Z,2.00
2018-07-16T21:03:39.864Z,2.10
2018-07-16T21:06:10.532Z,2.10
2018-07-16T21:08:41.154Z,2.50
2018-07-16T21:11:11.785Z,2.53
2018-07-16T21:14:45.120Z,2.60
2018-07-16T21:17:15.769Z,2.30
2018-07-16T21:19:46.482Z,2.10
2018-07-16T21:22:17.184Z,1.97
2018-07-16T21:24:47.892Z,1.93
2018-07-16T21:27:18.859Z,1.77
2018-07-16T21:29:49.652Z,1.90
2018-07-16T21:32:20.118Z,1.77
2018-07-16T21:34:50.608Z,2.20
2018-07-16T21:37:21.349Z,2.37
2018-07-16T21:39:52.012Z,2.00
2018-07-16T21:42:22.766Z,2.03
2018-07-16T21:44:53.438Z,2.07
2018-07-16T21:47:24.261Z,2.07
2018-07-16T21:49:54.896Z,2.30
2018-07-16T21:52:25.664Z,2.37
2018-07-16T21:54:56.379Z,2.07
2018-07-16T21:57:27.111Z,2.10
2018-07-16T21:59:57.790Z,2.43
2018-07-16T22:02:28.719Z,2.43
2018-07-16T22:04:59.370Z,1.90
2018-07-16T22:07:30.049Z,2.37
2018-07-16T22:10:00.694Z,1.70
2018-07-16T22:12:31.401Z,1.80
2018-07-16T22:15:02.164Z,2.03
2018-07-16T22:17:32.836Z,2.10
2018-07-16T22:20:03.604Z,1.90
2018-07-16T22:22:34.301Z,2.00
2018-07-16T22:25:05.083Z,2.90
2018-07-16T22:27:35.794Z,2.70
2018-07-16T22:30:06.495Z,2.47
2018-07-16T22:32:37.129Z,2.50
2018-07-16T22:35:07.806Z,2.50
2018-07-16T22:37:38.519Z,2.53
2018-07-16T22:40:09.838Z,2.47
2018-07-16T22:42:40.540Z,2.30
2018-07-16T22:45:11.258Z,2.23
2018-07-16T22:47:42.003Z,2.43
2018-07-16T22:50:12.711Z,2.20
2018-07-16T22:52:43.381Z,2.50
2018-07-16T22:55:14.088Z,2.40
2018-07-16T22:57:44.741Z,2.33
2018-07-16T23:00:15.518Z,2.80
2018-07-16T23:02:46.185Z,2.70
2018-07-16T23:05:16.875Z,2.40
2018-07-16T23:07:47.587Z,2.20
2018-07-16T23:10:18.275Z,2.23
2018-07-16T23:12:48.991Z,2.60
2018-07-16T23:15:19.654Z,2.47
2018-07-16T23:17:50.296Z,2.57
2018-07-16T23:20:20.989Z,2.60
2018-07-16T23:22:56.334Z,2.47
2018-07-16T23:25:27.866Z,2.70
2018-07-16T23:27:58.539Z,2.63
2018-07-16T23:30:29.244Z,2.73
2018-07-16T23:32:59.887Z,2.53
2018-07-16T23:35:30.598Z,2.80
2018-07-16T23:38:01.254Z,2.60
2018-07-16T23:40:32.058Z,2.47
2018-07-16T23:43:02.703Z,2.47
2018-07-16T23:45:33.380Z,3.00
2018-07-16T23:48:04.092Z,3.20
2018-07-16T23:50:34.809Z,3.00
2018-07-16T23:53:05.504Z,3.00
2018-07-16T23:55:36.308Z,3.60
2018-07-16T23:58:06.916Z,3.20
